sensor_id;sensor_type;location;lat;lon;timestamp;P1;durP1;ratioP1;P2;durP2;ratioP2
80175;SDS011;69501;42.124;24.722;2023-04-22T00:01:30;7.63;;;6.55;;
80175;SDS011;69501;42.124;24.722;2023-04-22T00:03:55;6.43;;;5.93;;
80175;SDS011;69501;42.124;24.722;2023-04-22T00:06:21;7.68;;;6.88;;
80175;SDS011;69501;42.124;24.722;2023-04-22T00:08:47;8.18;;;7.47;;
80175;SDS011;69501;42.124;24.722;2023-04-22T00:11:12;9.65;;;8.75;;
80175;SDS011;69501;42.124;24.722;2023-04-22T00:13:38;9.02;;;8.13;;
80175;SDS011;69501;42.124;24.722;2023-04-22T00:16:04;9.32;;;8.00;;
80175;SDS011;69501;42.124;24.722;2023-04-22T00:18:30;9.15;;;8.27;;
80175;SDS011;69501;42.124;24.722;2023-04-22T00:20:58;8.95;;;8.20;;
80175;SDS011;69501;42.124;24.722;2023-04-22T00:23:23;9.23;;;8.25;;
80175;SDS011;69501;42.124;24.722;2023-04-22T00:25:50;9.00;;;8.18;;
80175;SDS011;69501;42.124;24.722;2023-04-22T00:28:15;10.85;;;8.85;;
80175;SDS011;69501;42.124;24.722;2023-04-22T00:30:41;9.40;;;8.60;;
80175;SDS011;69501;42.124;24.722;2023-04-22T00:33:06;10.07;;;9.20;;
80175;SDS011;69501;42.124;24.722;2023-04-22T00:35:32;9.38;;;8.55;;
80175;SDS011;69501;42.124;24.722;2023-04-22T00:37:58;9.95;;;8.73;;
80175;SDS011;69501;42.124;24.722;2023-04-22T00:40:23;9.73;;;8.73;;
80175;SDS011;69501;42.124;24.722;2023-04-22T00:42:49;10.25;;;9.30;;
80175;SDS011;69501;42.124;24.722;2023-04-22T00:45:15;9.50;;;8.63;;
80175;SDS011;69501;42.124;24.722;2023-04-22T00:47:43;11.57;;;9.75;;
80175;SDS011;69501;42.124;24.722;2023-04-22T00:50:09;10.07;;;9.02;;
80175;SDS011;69501;42.124;24.722;2023-04-22T00:52:35;10.60;;;9.70;;
80175;SDS011;69501;42.124;24.722;2023-04-22T00:55:01;9.07;;;8.25;;
80175;SDS011;69501;42.124;24.722;2023-04-22T00:57:27;10.02;;;9.02;;
80175;SDS011;69501;42.124;24.722;2023-04-22T00:59:55;9.55;;;8.50;;
80175;SDS011;69501;42.124;24.722;2023-04-22T01:02:21;9.35;;;8.43;;
80175;SDS011;69501;42.124;24.722;2023-04-22T01:04:47;8.07;;;7.30;;
80175;SDS011;69501;42.124;24.722;2023-04-22T01:07:13;7.65;;;6.78;;
80175;SDS011;69501;42.124;24.722;2023-04-22T01:09:38;8.55;;;6.53;;
80175;SDS011;69501;42.124;24.722;2023-04-22T01:12:05;6.93;;;5.93;;
80175;SDS011;69501;42.124;24.722;2023-04-22T01:14:31;7.38;;;6.70;;
80175;SDS011;69501;42.124;24.722;2023-04-22T01:16:56;6.93;;;6.43;;
80175;SDS011;69501;42.124;24.722;2023-04-22T01:19:22;7.63;;;6.78;;
80175;SDS011;69501;42.124;24.722;2023-04-22T01:21:51;7.97;;;7.10;;
80175;SDS011;69501;42.124;24.722;2023-04-22T01:24:18;8.93;;;6.60;;
80175;SDS011;69501;42.124;24.722;2023-04-22T01:26:44;7.50;;;6.78;;
80175;SDS011;69501;42.124;24.722;2023-04-22T01:29:10;7.53;;;6.78;;
80175;SDS011;69501;42.124;24.722;2023-04-22T01:31:36;7.65;;;6.93;;
80175;SDS011;69501;42.124;24.722;2023-04-22T01:34:02;7.32;;;6.63;;
80175;SDS011;69501;42.124;24.722;2023-04-22T01:36:28;8.48;;;6.20;;
80175;SDS011;69501;42.124;24.722;2023-04-22T01:38:54;7.10;;;6.40;;
80175;SDS011;69501;42.124;24.722;2023-04-22T01:41:20;7.20;;;5.60;;
80175;SDS011;69501;42.124;24.722;2023-04-22T01:43:46;6.82;;;5.93;;
80175;SDS011;69501;42.124;24.722;2023-04-22T01:46:12;6.60;;;6.00;;
80175;SDS011;69501;42.124;24.722;2023-04-22T01:48:38;7.88;;;5.88;;
80175;SDS011;69501;42.124;24.722;2023-04-22T01:51:04;7.00;;;6.30;;
80175;SDS011;69501;42.124;24.722;2023-04-22T01:53:30;6.25;;;5.65;;
80175;SDS011;69501;42.124;24.722;2023-04-22T01:55:55;6.97;;;6.22;;
80175;SDS011;69501;42.124;24.722;2023-04-22T01:58:21;6.40;;;5.90;;
80175;SDS011;69501;42.124;24.722;2023-04-22T02:00:47;8.68;;;5.90;;
80175;SDS011;69501;42.124;24.722;2023-04-22T02:03:12;7.32;;;5.55;;
80175;SDS011;69501;42.124;24.722;2023-04-22T02:05:38;6.90;;;6.30;;
80175;SDS011;69501;42.124;24.722;2023-04-22T02:08:04;6.60;;;6.10;;
80175;SDS011;69501;42.124;24.722;2023-04-22T02:10:30;6.82;;;6.10;;
80175;SDS011;69501;42.124;24.722;2023-04-22T02:12:55;8.75;;;6.50;;
80175;SDS011;69501;42.124;24.722;2023-04-22T02:15:22;7.60;;;6.88;;
80175;SDS011;69501;42.124;24.722;2023-04-22T02:17:47;8.30;;;6.53;;
80175;SDS011;69501;42.124;24.722;2023-04-22T02:20:14;8.80;;;6.97;;
80175;SDS011;69501;42.124;24.722;2023-04-22T02:22:41;9.90;;;6.43;;
80175;SDS011;69501;42.124;24.722;2023-04-22T02:25:07;7.65;;;6.78;;
80175;SDS011;69501;42.124;24.722;2023-04-22T02:27:34;8.10;;;7.30;;
80175;SDS011;69501;42.124;24.722;2023-04-22T02:30:00;7.50;;;6.88;;
80175;SDS011;69501;42.124;24.722;2023-04-22T02:32:26;7.13;;;6.50;;
80175;SDS011;69501;42.124;24.722;2023-04-22T02:34:52;8.32;;;6.82;;
80175;SDS011;69501;42.124;24.722;2023-04-22T02:37:17;8.75;;;6.47;;
80175;SDS011;69501;42.124;24.722;2023-04-22T02:39:44;7.57;;;6.97;;
80175;SDS011;69501;42.124;24.722;2023-04-22T02:42:10;7.78;;;7.13;;
80175;SDS011;69501;42.124;24.722;2023-04-22T02:44:35;8.40;;;6.85;;
80175;SDS011;69501;42.124;24.722;2023-04-22T02:47:01;7.90;;;7.35;;
80175;SDS011;69501;42.124;24.722;2023-04-22T02:49:27;8.77;;;7.88;;
80175;SDS011;69501;42.124;24.722;2023-04-22T02:51:53;7.82;;;7.32;;
80175;SDS011;69501;42.124;24.722;2023-04-22T02:54:19;7.53;;;6.90;;
80175;SDS011;69501;42.124;24.722;2023-04-22T02:56:44;7.78;;;7.05;;
80175;SDS011;69501;42.124;24.722;2023-04-22T02:59:11;7.25;;;6.55;;
80175;SDS011;69501;42.124;24.722;2023-04-22T03:01:36;7.57;;;7.00;;
80175;SDS011;69501;42.124;24.722;2023-04-22T03:04:02;7.38;;;6.72;;
80175;SDS011;69501;42.124;24.722;2023-04-22T03:06:28;7.85;;;6.53;;
80175;SDS011;69501;42.124;24.722;2023-04-22T03:08:53;10.13;;;6.78;;
80175;SDS011;69501;42.124;24.722;2023-04-22T03:11:20;8.10;;;6.53;;
80175;SDS011;69501;42.124;24.722;2023-04-22T03:13:46;6.90;;;6.38;;
80175;SDS011;69501;42.124;24.722;2023-04-22T03:16:11;6.43;;;5.93;;
80175;SDS011;69501;42.124;24.722;2023-04-22T03:18:37;7.00;;;6.53;;
80175;SDS011;69501;42.124;24.722;2023-04-22T03:21:03;6.68;;;6.13;;
80175;SDS011;69501;42.124;24.722;2023-04-22T03:23:28;6.90;;;6.30;;
80175;SDS011;69501;42.124;24.722;2023-04-22T03:25:54;6.70;;;6.15;;
80175;SDS011;69501;42.124;24.722;2023-04-22T03:28:20;7.18;;;6.57;;
80175;SDS011;69501;42.124;24.722;2023-04-22T03:30:45;7.32;;;6.40;;
80175;SDS011;69501;42.124;24.722;2023-04-22T03:33:12;8.10;;;7.38;;
80175;SDS011;69501;42.124;24.722;2023-04-22T03:35:38;9.75;;;9.00;;
80175;SDS011;69501;42.124;24.722;2023-04-22T03:38:03;12.02;;;10.80;;
80175;SDS011;69501;42.124;24.722;2023-04-22T03:40:29;9.70;;;8.63;;
80175;SDS011;69501;42.124;24.722;2023-04-22T03:42:55;7.75;;;7.15;;
80175;SDS011;69501;42.124;24.722;2023-04-22T03:45:20;10.45;;;9.45;;
80175;SDS011;69501;42.124;24.722;2023-04-22T03:47:46;17.67;;;10.98;;
80175;SDS011;69501;42.124;24.722;2023-04-22T03:50:12;11.73;;;10.60;;
80175;SDS011;69501;42.124;24.722;2023-04-22T03:52:37;15.02;;;12.52;;
80175;SDS011;69501;42.124;24.722;2023-04-22T03:55:03;16.75;;;12.63;;
80175;SDS011;69501;42.124;24.722;2023-04-22T03:57:29;14.98;;;13.55;;
80175;SDS011;69501;42.124;24.722;2023-04-22T03:59:54;13.38;;;12.00;;
80175;SDS011;69501;42.124;24.722;2023-04-22T04:02:20;14.00;;;12.65;;
80175;SDS011;69501;42.124;24.722;2023-04-22T04:04:46;13.35;;;10.98;;
80175;SDS011;69501;42.124;24.722;2023-04-22T04:07:12;11.20;;;10.20;;
80175;SDS011;69501;42.124;24.722;2023-04-22T04:09:37;11.85;;;10.75;;
80175;SDS011;69501;42.124;24.722;2023-04-22T04:12:03;11.38;;;10.10;;
80175;SDS011;69501;42.124;24.722;2023-04-22T04:14:29;13.00;;;9.60;;
80175;SDS011;69501;42.124;24.722;2023-04-22T04:16:54;9.43;;;8.60;;
80175;SDS011;69501;42.124;24.722;2023-04-22T04:19:21;9.27;;;8.50;;
80175;SDS011;69501;42.124;24.722;2023-04-22T04:21:46;10.25;;;8.32;;
80175;SDS011;69501;42.124;24.722;2023-04-22T04:24:12;9.10;;;8.30;;
80175;SDS011;69501;42.124;24.722;2023-04-22T04:26:38;8.63;;;7.93;;
80175;SDS011;69501;42.124;24.722;2023-04-22T04:29:03;10.57;;;8.45;;
80175;SDS011;69501;42.124;24.722;2023-04-22T04:31:30;10.18;;;8.63;;
80175;SDS011;69501;42.124;24.722;2023-04-22T04:33:56;12.48;;;8.70;;
80175;SDS011;69501;42.124;24.722;2023-04-22T04:36:22;12.88;;;9.18;;
80175;SDS011;69501;42.124;24.722;2023-04-22T04:38:53;10.88;;;8.98;;
80175;SDS011;69501;42.124;24.722;2023-04-22T04:41:19;9.40;;;8.50;;
80175;SDS011;69501;42.124;24.722;2023-04-22T04:43:45;11.82;;;9.27;;
80175;SDS011;69501;42.124;24.722;2023-04-22T04:46:11;9.23;;;8.27;;
80175;SDS011;69501;42.124;24.722;2023-04-22T04:48:38;10.95;;;8.57;;
80175;SDS011;69501;42.124;24.722;2023-04-22T04:51:06;9.20;;;8.27;;
80175;SDS011;69501;42.124;24.722;2023-04-22T04:53:32;11.82;;;10.13;;
80175;SDS011;69501;42.124;24.722;2023-04-22T04:55:58;13.52;;;11.32;;
80175;SDS011;69501;42.124;24.722;2023-04-22T04:58:23;18.80;;;14.65;;
80175;SDS011;69501;42.124;24.722;2023-04-22T05:00:49;19.90;;;15.05;;
80175;SDS011;69501;42.124;24.722;2023-04-22T05:03:15;14.93;;;13.32;;
80175;SDS011;69501;42.124;24.722;2023-04-22T05:05:41;15.80;;;12.20;;
80175;SDS011;69501;42.124;24.722;2023-04-22T05:08:06;15.25;;;10.23;;
80175;SDS011;69501;42.124;24.722;2023-04-22T05:10:32;10.27;;;9.38;;
80175;SDS011;69501;42.124;24.722;2023-04-22T05:12:58;10.52;;;9.38;;
80175;SDS011;69501;42.124;24.722;2023-04-22T05:15:23;9.85;;;8.95;;
80175;SDS011;69501;42.124;24.722;2023-04-22T05:17:49;10.90;;;8.13;;
80175;SDS011;69501;42.124;24.722;2023-04-22T05:20:15;10.93;;;8.52;;
80175;SDS011;69501;42.124;24.722;2023-04-22T05:22:40;13.50;;;8.85;;
80175;SDS011;69501;42.124;24.722;2023-04-22T05:25:07;12.25;;;8.52;;
80175;SDS011;69501;42.124;24.722;2023-04-22T05:27:33;9.80;;;8.05;;
80175;SDS011;69501;42.124;24.722;2023-04-22T05:29:59;11.70;;;10.60;;
80175;SDS011;69501;42.124;24.722;2023-04-22T05:32:25;11.20;;;9.80;;
80175;SDS011;69501;42.124;24.722;2023-04-22T05:34:50;9.98;;;8.80;;
80175;SDS011;69501;42.124;24.722;2023-04-22T05:37:16;11.50;;;8.20;;
80175;SDS011;69501;42.124;24.722;2023-04-22T05:39:41;9.18;;;8.10;;
80175;SDS011;69501;42.124;24.722;2023-04-22T05:42:07;9.90;;;8.07;;
80175;SDS011;69501;42.124;24.722;2023-04-22T05:44:33;10.13;;;7.80;;
80175;SDS011;69501;42.124;24.722;2023-04-22T05:46:59;9.30;;;8.02;;
80175;SDS011;69501;42.124;24.722;2023-04-22T05:49:24;9.18;;;8.20;;
80175;SDS011;69501;42.124;24.722;2023-04-22T05:51:50;9.57;;;8.57;;
80175;SDS011;69501;42.124;24.722;2023-04-22T05:54:16;10.48;;;8.13;;
80175;SDS011;69501;42.124;24.722;2023-04-22T05:56:41;8.48;;;7.75;;
80175;SDS011;69501;42.124;24.722;2023-04-22T05:59:07;9.43;;;7.70;;
80175;SDS011;69501;42.124;24.722;2023-04-22T06:01:33;9.25;;;7.57;;
80175;SDS011;69501;42.124;24.722;2023-04-22T06:04:00;8.75;;;7.75;;
80175;SDS011;69501;42.124;24.722;2023-04-22T06:06:26;8.75;;;7.88;;
80175;SDS011;69501;42.124;24.722;2023-04-22T06:08:52;9.27;;;7.75;;
80175;SDS011;69501;42.124;24.722;2023-04-22T06:11:17;10.32;;;7.80;;
80175;SDS011;69501;42.124;24.722;2023-04-22T06:13:43;11.48;;;7.55;;
80175;SDS011;69501;42.124;24.722;2023-04-22T06:16:09;8.60;;;6.80;;
80175;SDS011;69501;42.124;24.722;2023-04-22T06:18:35;9.05;;;7.45;;
80175;SDS011;69501;42.124;24.722;2023-04-22T06:21:00;8.57;;;7.53;;
80175;SDS011;69501;42.124;24.722;2023-04-22T06:23:26;8.02;;;7.32;;
80175;SDS011;69501;42.124;24.722;2023-04-22T06:25:51;8.70;;;7.20;;
80175;SDS011;69501;42.124;24.722;2023-04-22T06:28:17;7.50;;;6.90;;
80175;SDS011;69501;42.124;24.722;2023-04-22T06:30:43;8.35;;;7.72;;
80175;SDS011;69501;42.124;24.722;2023-04-22T06:33:17;8.07;;;6.95;;
80175;SDS011;69501;42.124;24.722;2023-04-22T06:35:43;7.90;;;7.15;;
80175;SDS011;69501;42.124;24.722;2023-04-22T06:38:09;7.95;;;7.22;;
80175;SDS011;69501;42.124;24.722;2023-04-22T06:40:35;8.50;;;7.80;;
80175;SDS011;69501;42.124;24.722;2023-04-22T06:43:00;9.70;;;8.23;;
80175;SDS011;69501;42.124;24.722;2023-04-22T06:45:26;7.75;;;7.05;;
80175;SDS011;69501;42.124;24.722;2023-04-22T06:47:52;7.70;;;6.47;;
80175;SDS011;69501;42.124;24.722;2023-04-22T06:50:18;7.57;;;6.88;;
80175;SDS011;69501;42.124;24.722;2023-04-22T06:52:43;7.30;;;6.70;;
80175;SDS011;69501;42.124;24.722;2023-04-22T06:55:09;6.57;;;6.18;;
80175;SDS011;69501;42.124;24.722;2023-04-22T06:57:35;6.85;;;6.25;;
80175;SDS011;69501;42.124;24.722;2023-04-22T07:00:01;6.70;;;6.10;;
80175;SDS011;69501;42.124;24.722;2023-04-22T07:02:28;6.32;;;5.82;;
80175;SDS011;69501;42.124;24.722;2023-04-22T07:04:54;6.70;;;6.20;;
80175;SDS011;69501;42.124;24.722;2023-04-22T07:07:19;7.13;;;6.47;;
80175;SDS011;69501;42.124;24.722;2023-04-22T07:09:45;7.63;;;7.03;;
80175;SDS011;69501;42.124;24.722;2023-04-22T07:12:11;7.55;;;6.90;;
80175;SDS011;69501;42.124;24.722;2023-04-22T07:14:36;7.15;;;6.50;;
80175;SDS011;69501;42.124;24.722;2023-04-22T07:17:06;7.55;;;6.65;;
80175;SDS011;69501;42.124;24.722;2023-04-22T07:19:31;7.05;;;6.45;;
80175;SDS011;69501;42.124;24.722;2023-04-22T07:21:57;8.93;;;7.93;;
80175;SDS011;69501;42.124;24.722;2023-04-22T07:24:23;7.82;;;6.95;;
80175;SDS011;69501;42.124;24.722;2023-04-22T07:26:51;7.70;;;6.90;;
80175;SDS011;69501;42.124;24.722;2023-04-22T07:29:17;7.47;;;6.97;;
80175;SDS011;69501;42.124;24.722;2023-04-22T07:31:42;7.80;;;7.00;;
80175;SDS011;69501;42.124;24.722;2023-04-22T07:34:08;7.55;;;6.85;;
80175;SDS011;69501;42.124;24.722;2023-04-22T07:36:35;7.07;;;6.50;;
80175;SDS011;69501;42.124;24.722;2023-04-22T07:39:00;8.18;;;7.40;;
80175;SDS011;69501;42.124;24.722;2023-04-22T07:41:26;9.20;;;6.90;;
80175;SDS011;69501;42.124;24.722;2023-04-22T07:43:52;7.72;;;7.03;;
80175;SDS011;69501;42.124;24.722;2023-04-22T07:46:18;8.43;;;6.70;;
80175;SDS011;69501;42.124;24.722;2023-04-22T07:48:43;8.90;;;7.80;;
80175;SDS011;69501;42.124;24.722;2023-04-22T07:51:09;8.57;;;7.80;;
80175;SDS011;69501;42.124;24.722;2023-04-22T07:53:35;12.05;;;8.20;;
80175;SDS011;69501;42.124;24.722;2023-04-22T07:56:01;18.95;;;7.45;;
80175;SDS011;69501;42.124;24.722;2023-04-22T07:58:28;9.00;;;8.13;;
80175;SDS011;69501;42.124;24.722;2023-04-22T08:00:54;9.52;;;7.72;;
80175;SDS011;69501;42.124;24.722;2023-04-22T08:03:19;9.27;;;8.38;;
80175;SDS011;69501;42.124;24.722;2023-04-22T08:05:45;9.10;;;8.25;;
80175;SDS011;69501;42.124;24.722;2023-04-22T08:08:11;7.50;;;7.00;;
80175;SDS011;69501;42.124;24.722;2023-04-22T08:10:37;7.93;;;7.10;;
80175;SDS011;69501;42.124;24.722;2023-04-22T08:13:02;8.40;;;7.63;;
80175;SDS011;69501;42.124;24.722;2023-04-22T08:15:28;8.07;;;6.80;;
80175;SDS011;69501;42.124;24.722;2023-04-22T08:17:54;8.32;;;7.53;;
80175;SDS011;69501;42.124;24.722;2023-04-22T08:20:20;11.05;;;7.40;;
80175;SDS011;69501;42.124;24.722;2023-04-22T08:22:45;7.32;;;6.68;;
80175;SDS011;69501;42.124;24.722;2023-04-22T08:25:12;7.93;;;7.15;;
80175;SDS011;69501;42.124;24.722;2023-04-22T08:27:38;7.60;;;7.00;;
80175;SDS011;69501;42.124;24.722;2023-04-22T08:30:04;9.75;;;7.38;;
80175;SDS011;69501;42.124;24.722;2023-04-22T08:32:31;7.30;;;6.60;;
80175;SDS011;69501;42.124;24.722;2023-04-22T08:34:56;8.90;;;6.97;;
80175;SDS011;69501;42.124;24.722;2023-04-22T08:37:22;8.25;;;7.50;;
80175;SDS011;69501;42.124;24.722;2023-04-22T08:39:49;7.78;;;6.90;;
80175;SDS011;69501;42.124;24.722;2023-04-22T08:42:16;9.25;;;6.53;;
80175;SDS011;69501;42.124;24.722;2023-04-22T08:44:44;7.50;;;6.68;;
80175;SDS011;69501;42.124;24.722;2023-04-22T08:47:10;8.10;;;7.30;;
80175;SDS011;69501;42.124;24.722;2023-04-22T08:49:38;7.18;;;6.47;;
80175;SDS011;69501;42.124;24.722;2023-04-22T08:52:04;7.68;;;6.20;;
80175;SDS011;69501;42.124;24.722;2023-04-22T08:54:30;9.20;;;8.05;;
80175;SDS011;69501;42.124;24.722;2023-04-22T08:56:57;9.25;;;7.32;;
80175;SDS011;69501;42.124;24.722;2023-04-22T08:59:26;10.57;;;8.73;;
80175;SDS011;69501;42.124;24.722;2023-04-22T09:01:52;9.07;;;7.90;;
80175;SDS011;69501;42.124;24.722;2023-04-22T09:04:20;9.15;;;8.32;;
80175;SDS011;69501;42.124;24.722;2023-04-22T09:06:46;8.35;;;7.38;;
80175;SDS011;69501;42.124;24.722;2023-04-22T09:09:12;8.93;;;8.13;;
80175;SDS011;69501;42.124;24.722;2023-04-22T09:11:38;7.95;;;7.20;;
80175;SDS011;69501;42.124;24.722;2023-04-22T09:14:04;11.27;;;7.05;;
80175;SDS011;69501;42.124;24.722;2023-04-22T09:16:45;7.88;;;6.95;;
80175;SDS011;69501;42.124;24.722;2023-04-22T09:19:13;14.43;;;7.32;;
80175;SDS011;69501;42.124;24.722;2023-04-22T09:21:43;10.80;;;7.30;;
80175;SDS011;69501;42.124;24.722;2023-04-22T09:24:10;14.55;;;7.90;;
80175;SDS011;69501;42.124;24.722;2023-04-22T09:26:39;9.45;;;6.82;;
80175;SDS011;69501;42.124;24.722;2023-04-22T09:29:06;11.32;;;8.30;;
80175;SDS011;69501;42.124;24.722;2023-04-22T09:31:37;12.45;;;8.02;;
80175;SDS011;69501;42.124;24.722;2023-04-22T09:34:03;8.35;;;7.60;;
80175;SDS011;69501;42.124;24.722;2023-04-22T09:36:29;10.27;;;9.27;;
80175;SDS011;69501;42.124;24.722;2023-04-22T09:39:03;10.80;;;8.30;;
80175;SDS011;69501;42.124;24.722;2023-04-22T09:41:35;10.88;;;9.30;;
80175;SDS011;69501;42.124;24.722;2023-04-22T09:44:09;9.85;;;8.80;;
80175;SDS011;69501;42.124;24.722;2023-04-22T09:46:40;10.02;;;7.60;;
80175;SDS011;69501;42.124;24.722;2023-04-22T09:49:07;7.45;;;6.78;;
80175;SDS011;69501;42.124;24.722;2023-04-22T09:51:33;8.35;;;7.25;;
80175;SDS011;69501;42.124;24.722;2023-04-22T09:54:04;10.52;;;9.52;;
80175;SDS011;69501;42.124;24.722;2023-04-22T09:59:22;8.70;;;7.90;;
80175;SDS011;69501;42.124;24.722;2023-04-22T10:01:54;8.32;;;7.50;;
80175;SDS011;69501;42.124;24.722;2023-04-22T10:04:21;8.18;;;6.60;;
80175;SDS011;69501;42.124;24.722;2023-04-22T10:06:49;9.07;;;6.28;;
80175;SDS011;69501;42.124;24.722;2023-04-22T10:09:16;8.15;;;6.93;;
80175;SDS011;69501;42.124;24.722;2023-04-22T10:11:43;9.15;;;8.15;;
80175;SDS011;69501;42.124;24.722;2023-04-22T10:14:09;7.35;;;6.70;;
80175;SDS011;69501;42.124;24.722;2023-04-22T10:16:37;9.23;;;6.47;;
80175;SDS011;69501;42.124;24.722;2023-04-22T10:19:06;7.47;;;6.07;;
80175;SDS011;69501;42.124;24.722;2023-04-22T10:21:35;7.22;;;6.03;;
80175;SDS011;69501;42.124;24.722;2023-04-22T10:24:02;6.68;;;5.47;;
80175;SDS011;69501;42.124;24.722;2023-04-22T10:26:42;5.60;;;5.10;;
80175;SDS011;69501;42.124;24.722;2023-04-22T10:29:08;7.30;;;6.18;;
80175;SDS011;69501;42.124;24.722;2023-04-22T10:31:41;8.18;;;7.40;;
80175;SDS011;69501;42.124;24.722;2023-04-22T10:34:09;5.93;;;5.43;;
80175;SDS011;69501;42.124;24.722;2023-04-22T10:36:59;5.40;;;5.00;;
80175;SDS011;69501;42.124;24.722;2023-04-22T10:39:29;6.82;;;5.95;;
80175;SDS011;69501;42.124;24.722;2023-04-22T10:41:57;4.45;;;4.10;;
80175;SDS011;69501;42.124;24.722;2023-04-22T10:45:14;5.88;;;4.03;;
80175;SDS011;69501;42.124;24.722;2023-04-22T10:52:41;6.90;;;6.10;;
80175;SDS011;69501;42.124;24.722;2023-04-22T10:55:10;10.82;;;8.32;;
80175;SDS011;69501;42.124;24.722;2023-04-22T10:57:39;9.95;;;4.80;;
80175;SDS011;69501;42.124;24.722;2023-04-22T11:02:43;5.13;;;4.43;;
80175;SDS011;69501;42.124;24.722;2023-04-22T11:05:17;7.03;;;4.70;;
80175;SDS011;69501;42.124;24.722;2023-04-22T11:07:46;7.55;;;6.03;;
80175;SDS011;69501;42.124;24.722;2023-04-22T11:10:33;7.63;;;5.35;;
80175;SDS011;69501;42.124;24.722;2023-04-22T11:13:10;8.18;;;6.03;;
80175;SDS011;69501;42.124;24.722;2023-04-22T11:15:39;6.68;;;5.47;;
80175;SDS011;69501;42.124;24.722;2023-04-22T11:18:08;5.00;;;4.60;;
80175;SDS011;69501;42.124;24.722;2023-04-22T11:20:35;5.75;;;4.97;;
80175;SDS011;69501;42.124;24.722;2023-04-22T11:23:02;5.28;;;4.82;;
80175;SDS011;69501;42.124;24.722;2023-04-22T11:25:28;4.10;;;3.80;;
80175;SDS011;69501;42.124;24.722;2023-04-22T11:27:54;8.07;;;3.22;;
80175;SDS011;69501;42.124;24.722;2023-04-22T11:30:21;6.22;;;4.68;;
80175;SDS011;69501;42.124;24.722;2023-04-22T11:32:49;8.00;;;3.20;;
80175;SDS011;69501;42.124;24.722;2023-04-22T11:37:45;7.43;;;3.45;;
80175;SDS011;69501;42.124;24.722;2023-04-22T11:40:12;7.82;;;3.45;;
80175;SDS011;69501;42.124;24.722;2023-04-22T11:42:39;3.90;;;2.47;;
80175;SDS011;69501;42.124;24.722;2023-04-22T11:45:05;5.28;;;3.30;;
80175;SDS011;69501;42.124;24.722;2023-04-22T11:47:32;6.32;;;2.53;;
80175;SDS011;69501;42.124;24.722;2023-04-22T11:50:06;7.32;;;2.60;;
80175;SDS011;69501;42.124;24.722;2023-04-22T12:00:30;3.83;;;2.33;;
80175;SDS011;69501;42.124;24.722;2023-04-22T12:08:20;5.93;;;2.92;;
80175;SDS011;69501;42.124;24.722;2023-04-22T12:10:53;3.05;;;2.03;;
80175;SDS011;69501;42.124;24.722;2023-04-22T12:13:29;4.43;;;2.47;;
80175;SDS011;69501;42.124;24.722;2023-04-22T12:16:01;4.15;;;2.38;;
80175;SDS011;69501;42.124;24.722;2023-04-22T12:18:34;2.22;;;1.98;;
80175;SDS011;69501;42.124;24.722;2023-04-22T12:21:08;2.30;;;2.10;;
80175;SDS011;69501;42.124;24.722;2023-04-22T12:23:41;2.75;;;2.50;;
80175;SDS011;69501;42.124;24.722;2023-04-22T12:26:07;2.77;;;2.03;;
80175;SDS011;69501;42.124;24.722;2023-04-22T12:28:33;3.63;;;2.00;;
80175;SDS011;69501;42.124;24.722;2023-04-22T12:30:58;2.13;;;1.85;;
80175;SDS011;69501;42.124;24.722;2023-04-22T12:33:24;3.30;;;2.90;;
80175;SDS011;69501;42.124;24.722;2023-04-22T12:35:50;5.43;;;3.28;;
80175;SDS011;69501;42.124;24.722;2023-04-22T12:38:16;3.95;;;2.75;;
80175;SDS011;69501;42.124;24.722;2023-04-22T12:40:43;4.85;;;3.67;;
80175;SDS011;69501;42.124;24.722;2023-04-22T12:43:09;4.78;;;3.20;;
80175;SDS011;69501;42.124;24.722;2023-04-22T12:45:34;3.97;;;3.50;;
80175;SDS011;69501;42.124;24.722;2023-04-22T12:48:00;4.55;;;3.65;;
80175;SDS011;69501;42.124;24.722;2023-04-22T12:50:26;2.97;;;2.67;;
80175;SDS011;69501;42.124;24.722;2023-04-22T12:52:52;3.13;;;2.80;;
80175;SDS011;69501;42.124;24.722;2023-04-22T12:55:17;3.15;;;2.85;;
80175;SDS011;69501;42.124;24.722;2023-04-22T12:57:46;3.38;;;3.08;;
80175;SDS011;69501;42.124;24.722;2023-04-22T13:00:13;2.70;;;2.45;;
80175;SDS011;69501;42.124;24.722;2023-04-22T13:02:42;3.63;;;2.58;;
80175;SDS011;69501;42.124;24.722;2023-04-22T13:05:09;3.80;;;2.80;;
80175;SDS011;69501;42.124;24.722;2023-04-22T13:07:36;2.58;;;2.30;;
80175;SDS011;69501;42.124;24.722;2023-04-22T13:10:02;3.13;;;2.38;;
80175;SDS011;69501;42.124;24.722;2023-04-22T13:12:29;4.93;;;2.53;;
80175;SDS011;69501;42.124;24.722;2023-04-22T13:14:54;2.97;;;2.60;;
80175;SDS011;69501;42.124;24.722;2023-04-22T13:17:20;2.72;;;2.53;;
80175;SDS011;69501;42.124;24.722;2023-04-22T13:19:46;3.65;;;3.30;;
80175;SDS011;69501;42.124;24.722;2023-04-22T13:22:14;3.30;;;2.67;;
80175;SDS011;69501;42.124;24.722;2023-04-22T13:24:40;4.30;;;2.53;;
80175;SDS011;69501;42.124;24.722;2023-04-22T13:27:06;8.05;;;3.63;;
80175;SDS011;69501;42.124;24.722;2023-04-22T13:29:32;4.40;;;2.72;;
80175;SDS011;69501;42.124;24.722;2023-04-22T13:31:58;4.03;;;3.22;;
80175;SDS011;69501;42.124;24.722;2023-04-22T13:34:24;3.28;;;2.83;;
80175;SDS011;69501;42.124;24.722;2023-04-22T13:36:50;2.20;;;2.10;;
80175;SDS011;69501;42.124;24.722;2023-04-22T13:39:16;3.83;;;2.30;;
80175;SDS011;69501;42.124;24.722;2023-04-22T13:41:42;2.80;;;2.60;;
80175;SDS011;69501;42.124;24.722;2023-04-22T13:44:12;6.30;;;2.95;;
80175;SDS011;69501;42.124;24.722;2023-04-22T13:46:38;3.58;;;3.00;;
80175;SDS011;69501;42.124;24.722;2023-04-22T13:49:04;3.28;;;2.42;;
80175;SDS011;69501;42.124;24.722;2023-04-22T13:51:30;2.78;;;2.28;;
80175;SDS011;69501;42.124;24.722;2023-04-22T13:53:56;3.80;;;2.65;;
80175;SDS011;69501;42.124;24.722;2023-04-22T13:56:22;4.47;;;2.78;;
80175;SDS011;69501;42.124;24.722;2023-04-22T13:58:49;3.17;;;2.92;;
80175;SDS011;69501;42.124;24.722;2023-04-22T14:01:16;2.58;;;2.38;;
80175;SDS011;69501;42.124;24.722;2023-04-22T14:03:42;2.50;;;2.30;;
80175;SDS011;69501;42.124;24.722;2023-04-22T14:06:08;2.65;;;2.03;;
80175;SDS011;69501;42.124;24.722;2023-04-22T14:08:34;3.10;;;2.50;;
80175;SDS011;69501;42.124;24.722;2023-04-22T14:11:00;43.15;;;33.78;;
80175;SDS011;69501;42.124;24.722;2023-04-22T14:13:27;10.02;;;7.80;;
80175;SDS011;69501;42.124;24.722;2023-04-22T14:15:53;3.63;;;2.20;;
80175;SDS011;69501;42.124;24.722;2023-04-22T14:18:19;3.42;;;2.33;;
80175;SDS011;69501;42.124;24.722;2023-04-22T14:20:47;5.65;;;1.75;;
80175;SDS011;69501;42.124;24.722;2023-04-22T14:23:13;3.42;;;2.00;;
80175;SDS011;69501;42.124;24.722;2023-04-22T14:25:39;1.92;;;1.73;;
80175;SDS011;69501;42.124;24.722;2023-04-22T14:28:04;2.13;;;1.98;;
80175;SDS011;69501;42.124;24.722;2023-04-22T14:30:30;2.67;;;2.40;;
80175;SDS011;69501;42.124;24.722;2023-04-22T14:32:56;3.30;;;2.25;;
80175;SDS011;69501;42.124;24.722;2023-04-22T14:35:21;1.90;;;1.80;;
80175;SDS011;69501;42.124;24.722;2023-04-22T14:37:47;1.80;;;1.70;;
80175;SDS011;69501;42.124;24.722;2023-04-22T14:40:13;2.85;;;2.15;;
80175;SDS011;69501;42.124;24.722;2023-04-22T14:42:39;3.88;;;2.35;;
80175;SDS011;69501;42.124;24.722;2023-04-22T14:45:05;3.55;;;2.65;;
80175;SDS011;69501;42.124;24.722;2023-04-22T14:47:31;4.30;;;2.33;;
80175;SDS011;69501;42.124;24.722;2023-04-22T14:49:57;2.25;;;2.00;;
80175;SDS011;69501;42.124;24.722;2023-04-22T14:52:22;5.70;;;2.35;;
80175;SDS011;69501;42.124;24.722;2023-04-22T14:54:48;3.05;;;2.35;;